Time;durP1;ratioP1;P1;durP2;ratioP2;P2;SDS_P1;SDS_P2;PMS_P1;PMS_P2;Temp;Humidity;BMP_temperature;BMP_pressure;BME280_temperature;BME280_humidity;BME280_pressure;Samples;Min_cycle;Max_cycle;Signal;HPM_P1;HPM_P2
2022/07/21 00:01:58;;;;;;;0.05;0.05;;;29.30;55.70;;;;;;4192636;28;20051;-68
2022/07/21 00:04:21;;;;;;;0.00;0.00;;;29.30;55.60;;;;;;4192357;28;20053;-69
2022/07/21 00:06:43;;;;;;;0.00;0.00;;;29.30;55.80;;;;;;4192306;28;20157;-69
2022/07/21 00:09:05;;;;;;;0.00;0.00;;;29.30;55.70;;;;;;4192393;28;20411;-68
2022/07/21 00:11:28;;;;;;;0.00;0.00;;;29.30;55.90;;;;;;4192070;28;20044;-68
2022/07/21 00:13:51;;;;;;;0.00;0.00;;;29.30;55.90;;;;;;4192341;28;20048;-70
2022/07/21 00:16:13;;;;;;;0.00;0.00;;;29.30;55.90;;;;;;4191940;28;20044;-68
2022/07/21 00:18:39;;;;;;;0.00;0.00;;;29.30;56.00;;;;;;4192301;28;20176;-69
2022/07/21 00:21:01;;;;;;;0.00;0.00;;;29.20;56.00;;;;;;4191868;28;20056;-68
2022/07/21 00:23:24;;;;;;;0.00;0.00;;;29.30;56.00;;;;;;4192125;28;20053;-69
2022/07/21 00:25:46;;;;;;;0.00;0.00;;;29.20;55.90;;;;;;4191537;28;20052;-69
2022/07/21 00:28:09;;;;;;;0.00;0.00;;;29.30;56.00;;;;;;4192156;28;20573;-68
2022/07/21 00:30:32;;;;;;;0.00;0.00;;;29.20;56.00;;;;;;4192023;28;20051;-67
2022/07/21 00:32:54;;;;;;;0.22;0.22;;;29.20;56.00;;;;;;4192502;28;20056;-68
2022/07/21 00:35:16;;;;;;;0.47;0.47;;;29.20;56.10;;;;;;4191682;28;20055;-68
2022/07/21 00:37:38;;;;;;;0.00;0.00;;;29.20;56.10;;;;;;4192290;28;20470;-68
2022/07/21 00:40:00;;;;;;;0.20;0.20;;;29.20;56.10;;;;;;4191732;28;20049;-68
2022/07/21 00:42:24;;;;;;;0.30;0.20;;;29.20;56.20;;;;;;4192194;28;20616;-69
2022/07/21 00:44:47;;;;;;;0.35;0.35;;;29.20;56.20;;;;;;4191476;28;20468;-68
2022/07/21 00:47:11;;;;;;;0.10;0.10;;;29.20;56.30;;;;;;4192362;28;20071;-69
2022/07/21 00:49:33;;;;;;;0.00;0.00;;;29.20;56.40;;;;;;4191432;28;20191;-69
2022/07/21 00:51:55;;;;;;;0.00;0.00;;;29.20;56.40;;;;;;4190733;28;20052;-68
2022/07/21 00:54:19;;;;;;;0.10;0.10;;;29.20;56.60;;;;;;4191898;28;20071;-68
2022/07/21 00:56:41;;;;;;;0.00;0.00;;;29.20;56.60;;;;;;4191717;28;20099;-67
2022/07/21 00:59:03;;;;;;;0.00;0.00;;;29.20;56.70;;;;;;4191859;28;20079;-66
2022/07/21 01:01:26;;;;;;;0.00;0.00;;;29.20;56.60;;;;;;4190520;28;20496;-67
2022/07/21 01:03:48;;;;;;;0.00;0.00;;;29.20;56.70;;;;;;4191686;28;20448;-67
2022/07/21 01:06:10;;;;;;;0.10;0.10;;;29.20;56.90;;;;;;4191617;28;20483;-67
2022/07/21 01:08:33;;;;;;;0.00;0.00;;;29.20;56.90;;;;;;4191718;28;20045;-67
2022/07/21 01:10:56;;;;;;;0.82;0.82;;;29.20;56.70;;;;;;4191895;28;20132;-68
2022/07/21 01:13:17;;;;;;;0.00;0.00;;;29.10;56.70;;;;;;4192081;28;20445;-67
2022/07/21 01:15:39;;;;;;;0.00;0.00;;;29.10;56.70;;;;;;4191684;28;20487;-68
2022/07/21 01:18:03;;;;;;;0.10;0.10;;;29.10;56.70;;;;;;4191629;28;20103;-66
2022/07/21 01:20:25;;;;;;;0.28;0.28;;;29.10;56.80;;;;;;4191049;28;20083;-67
2022/07/21 01:22:51;;;;;;;0.00;0.00;;;29.10;56.90;;;;;;4191320;28;20041;-66
2022/07/21 01:25:13;;;;;;;0.17;0.17;;;29.10;57.00;;;;;;4191950;28;20060;-67
2022/07/21 01:27:35;;;;;;;0.00;0.00;;;29.00;57.00;;;;;;4191637;28;20044;-67
2022/07/21 01:29:58;;;;;;;0.10;0.10;;;29.10;57.00;;;;;;4190500;28;20051;-67
2022/07/21 01:32:20;;;;;;;0.03;0.03;;;29.10;57.10;;;;;;4191802;28;20395;-66
2022/07/21 01:34:42;;;;;;;0.10;0.10;;;29.00;57.10;;;;;;4175210;28;20068;-67
2022/07/21 01:37:04;;;;;;;0.00;0.00;;;29.00;57.10;;;;;;4177887;28;20059;-66
2022/07/21 01:42:07;;;;;;;;;;;29.00;57.20;;;;;;4178067;28;20118;-67
2022/07/21 01:44:29;;;;;;;0.03;0.03;;;29.00;57.30;;;;;;4179532;28;19924;-66
2022/07/21 01:46:52;;;;;;;0.20;0.20;;;29.00;57.40;;;;;;4194439;28;20407;-67
2022/07/21 01:49:16;;;;;;;0.00;0.00;;;29.00;57.50;;;;;;4194142;28;20388;-67
2022/07/21 01:51:39;;;;;;;0.95;0.88;;;29.00;57.60;;;;;;4194309;28;20131;-67
2022/07/21 01:54:01;;;;;;;0.90;0.25;;;29.00;57.60;;;;;;4194419;28;20533;-66
2022/07/21 01:56:26;;;;;;;0.00;0.00;;;28.90;57.60;;;;;;4194222;28;20139;-67
2022/07/21 01:58:48;;;;;;;0.20;0.20;;;28.90;57.70;;;;;;4194071;28;20055;-67
2022/07/21 02:01:11;;;;;;;0.00;0.00;;;28.90;57.70;;;;;;4194192;28;20109;-67
2022/07/21 02:03:33;;;;;;;0.03;0.03;;;28.90;57.80;;;;;;4193979;28;20135;-68
2022/07/21 02:06:01;;;;;;;0.00;0.00;;;28.90;57.90;;;;;;4177550;28;20063;-66
2022/07/21 02:08:23;;;;;;;0.17;0.17;;;28.90;57.90;;;;;;4177521;28;20037;-67
2022/07/21 02:10:45;;;;;;;0.08;0.08;;;28.90;57.90;;;;;;4193070;28;22305;-67
2022/07/21 02:13:09;;;;;;;0.10;0.10;;;28.90;57.90;;;;;;4193604;28;20537;-66
2022/07/21 02:15:32;;;;;;;0.00;0.00;;;28.90;57.90;;;;;;4194014;28;20094;-67
2022/07/21 02:17:54;;;;;;;0.00;0.00;;;28.90;58.00;;;;;;4193430;28;20048;-67
2022/07/21 02:20:16;;;;;;;0.35;0.35;;;28.90;58.80;;;;;;4192956;28;20138;-68
2022/07/21 02:22:38;;;;;;;2.35;0.80;;;28.80;58.20;;;;;;4176980;28;20122;-68
2022/07/21 02:25:00;;;;;;;0.00;0.00;;;28.90;58.10;;;;;;4177306;28;20068;-68
2022/07/21 02:27:22;;;;;;;0.32;0.25;;;28.90;58.20;;;;;;4177210;28;20048;-66
2022/07/21 02:29:45;;;;;;;0.50;0.50;;;28.80;58.20;;;;;;4177383;28;20087;-67
2022/07/21 02:32:07;;;;;;;0.10;0.10;;;28.80;58.20;;;;;;4176996;28;20091;-67
2022/07/21 02:34:29;;;;;;;0.00;0.00;;;28.90;58.40;;;;;;4191876;28;20051;-67
2022/07/21 02:36:51;;;;;;;0.25;0.25;;;28.80;58.40;;;;;;4192160;28;20064;-60
2022/07/21 02:39:13;;;;;;;0.47;0.47;;;28.80;59.10;;;;;;4193714;28;20060;-60
2022/07/21 02:41:35;;;;;;;0.00;0.00;;;28.80;58.40;;;;;;4193293;28;20071;-60
2022/07/21 02:43:57;;;;;;;0.85;0.85;;;28.80;58.50;;;;;;4193539;28;20114;-60
2022/07/21 02:46:21;;;;;;;4.75;0.50;;;28.80;58.50;;;;;;4192968;28;20094;-60
2022/07/21 02:48:43;;;;;;;0.15;0.15;;;28.80;58.60;;;;;;4192531;28;20078;-60
2022/07/21 02:51:05;;;;;;;0.22;0.22;;;28.80;58.60;;;;;;4192861;28;20045;-60
2022/07/21 02:53:29;;;;;;;2.35;0.98;;;28.80;58.60;;;;;;4191340;28;20040;-60
2022/07/21 02:55:53;;;;;;;0.22;0.22;;;28.80;58.60;;;;;;4192845;28;20197;-61
2022/07/21 02:58:17;;;;;;;1.15;1.00;;;28.80;58.70;;;;;;4192320;28;20102;-60
2022/07/21 03:00:41;;;;;;;1.17;0.65;;;28.80;58.70;;;;;;4193455;28;20151;-60
2022/07/21 03:03:05;;;;;;;0.20;0.20;;;28.70;58.70;;;;;;4192397;28;20715;-60
2022/07/21 03:05:27;;;;;;;0.00;0.00;;;28.70;58.80;;;;;;4192562;28;20053;-60
2022/07/21 03:07:49;;;;;;;0.20;0.20;;;28.70;58.80;;;;;;4192867;28;20553;-61
2022/07/21 03:10:11;;;;;;;0.00;0.00;;;28.70;58.90;;;;;;4192816;28;20483;-60
2022/07/21 03:12:33;;;;;;;0.43;0.43;;;28.70;58.90;;;;;;4192535;28;20094;-61
2022/07/21 03:14:55;;;;;;;0.00;0.00;;;28.70;58.90;;;;;;4192507;28;20549;-60
2022/07/21 03:17:17;;;;;;;0.08;0.08;;;28.70;58.90;;;;;;4192563;28;20674;-61
2022/07/21 03:19:40;;;;;;;0.00;0.00;;;28.70;59.70;;;;;;4192708;28;20098;-60
2022/07/21 03:22:02;;;;;;;0.57;0.57;;;28.70;59.00;;;;;;4192394;28;20521;-60
2022/07/21 03:24:24;;;;;;;0.00;0.00;;;28.70;59.10;;;;;;4192218;28;20129;-60
2022/07/21 03:26:46;;;;;;;0.65;0.63;;;28.70;59.10;;;;;;4192362;28;20105;-61
2022/07/21 03:29:09;;;;;;;0.90;0.90;;;28.70;59.10;;;;;;4192366;28;20063;-60
2022/07/21 03:31:31;;;;;;;0.00;0.00;;;28.60;59.10;;;;;;4192164;28;20048;-60
2022/07/21 03:33:53;;;;;;;0.00;0.00;;;28.60;59.20;;;;;;4192561;28;20090;-60
2022/07/21 03:36:16;;;;;;;0.40;0.35;;;28.60;59.20;;;;;;4175613;28;20041;-61
2022/07/21 03:38:38;;;;;;;0.00;0.00;;;28.60;59.30;;;;;;4175926;28;20506;-60
2022/07/21 03:41:00;;;;;;;0.00;0.00;;;28.60;59.30;;;;;;4176361;28;20055;-60
2022/07/21 03:43:22;;;;;;;0.00;0.00;;;28.60;59.30;;;;;;4175539;28;20129;-60
2022/07/21 03:45:44;;;;;;;0.30;0.30;;;28.60;59.30;;;;;;4174428;28;20063;-60
2022/07/21 03:48:08;;;;;;;0.00;0.00;;;28.60;59.40;;;;;;4175433;28;20095;-61
2022/07/21 03:50:30;;;;;;;0.03;0.03;;;28.60;59.40;;;;;;4183237;28;20049;-60
2022/07/21 03:52:54;;;;;;;0.00;0.00;;;28.60;59.40;;;;;;4192032;28;20391;-61
2022/07/21 03:55:17;;;;;;;0.00;0.00;;;28.60;59.40;;;;;;4192076;28;20480;-61
2022/07/21 03:57:41;;;;;;;0.10;0.10;;;28.60;59.40;;;;;;4191879;28;20062;-61
2022/07/21 04:00:06;;;;;;;0.22;0.22;;;28.60;60.20;;;;;;4192101;28;20049;-61
2022/07/21 04:02:32;;;;;;;0.10;0.10;;;28.60;59.50;;;;;;4191748;28;20079;-60
2022/07/21 04:04:55;;;;;;;0.20;0.20;;;28.60;59.50;;;;;;4192228;28;20075;-60
2022/07/21 04:07:17;;;;;;;0.10;0.10;;;28.60;59.60;;;;;;4190816;28;20456;-61
2022/07/21 04:09:40;;;;;;;0.43;0.43;;;28.50;59.50;;;;;;4192438;28;20052;-60
2022/07/21 04:12:02;;;;;;;0.55;0.55;;;28.60;59.60;;;;;;4190414;28;20055;-61
2022/07/21 04:14:24;;;;;;;0.00;0.00;;;28.60;59.60;;;;;;4192423;28;20460;-61
2022/07/21 04:16:46;;;;;;;0.00;0.00;;;28.50;59.70;;;;;;4191528;28;20068;-61
2022/07/21 04:19:09;;;;;;;0.32;0.32;;;28.50;59.70;;;;;;4191119;28;20044;-60
2022/07/21 04:21:31;;;;;;;0.45;0.45;;;28.50;59.70;;;;;;4192046;28;20533;-61
2022/07/21 04:23:53;;;;;;;0.10;0.10;;;28.60;59.80;;;;;;4191936;28;20483;-61
2022/07/21 04:26:16;;;;;;;0.35;0.35;;;28.50;59.70;;;;;;4190020;28;20099;-61
2022/07/21 04:28:38;;;;;;;5.07;0.65;;;28.50;59.80;;;;;;4191893;28;20480;-61
2022/07/21 04:31:00;;;;;;;0.00;0.00;;;28.50;59.80;;;;;;4191593;28;20151;-61
2022/07/21 04:33:22;;;;;;;0.20;0.20;;;28.50;60.60;;;;;;4192290;28;20564;-61
2022/07/21 04:35:44;;;;;;;0.20;0.20;;;28.50;59.80;;;;;;4191785;28;20147;-61
2022/07/21 04:38:09;;;;;;;0.45;0.45;;;28.50;59.90;;;;;;4191917;28;20074;-61
2022/07/21 04:40:31;;;;;;;0.00;0.00;;;28.50;59.90;;;;;;4191637;28;20109;-61
2022/07/21 04:42:54;;;;;;;0.00;0.00;;;28.50;60.80;;;;;;4190169;28;20566;-60
2022/07/21 04:45:17;;;;;;;0.00;0.00;;;28.50;59.90;;;;;;4191611;28;20450;-60
2022/07/21 04:47:43;;;;;;;0.00;0.00;;;28.50;60.00;;;;;;4191580;28;20055;-60
2022/07/21 04:50:06;;;;;;;2.30;0.47;;;28.50;60.10;;;;;;4190647;28;20139;-60
2022/07/21 04:52:28;;;;;;;0.28;0.28;;;28.50;60.20;;;;;;4191824;28;20501;-61
2022/07/21 04:54:50;;;;;;;0.00;0.00;;;28.50;60.80;;;;;;4189623;28;20121;-61
2022/07/21 04:57:12;;;;;;;0.00;0.00;;;28.50;61.10;;;;;;4182169;28;20058;-60
2022/07/21 04:59:36;;;;;;;1.27;1.17;;;28.50;60.30;;;;;;4184794;28;20075;-61
2022/07/21 05:01:58;;;;;;;0.63;0.47;;;28.40;60.70;;;;;;4189168;28;20135;-61
2022/07/21 05:04:20;;;;;;;0.20;0.20;;;28.40;60.60;;;;;;4178635;28;20056;-60
2022/07/21 05:06:42;;;;;;;0.65;0.65;;;28.40;60.50;;;;;;4189392;28;20080;-61
2022/07/21 05:09:04;;;;;;;0.08;0.08;;;28.40;60.50;;;;;;4191047;28;20074;-60
2022/07/21 05:11:27;;;;;;;0.70;0.70;;;28.40;60.50;;;;;;4189573;28;20093;-61
2022/07/21 05:13:48;;;;;;;0.00;0.00;;;28.40;60.60;;;;;;4177735;28;20484;-61
2022/07/21 05:16:12;;;;;;;0.00;0.00;;;28.40;60.70;;;;;;4189455;28;20044;-61
2022/07/21 05:18:35;;;;;;;0.10;0.10;;;28.40;60.80;;;;;;4193199;28;20102;-61
2022/07/21 05:20:57;;;;;;;0.17;0.17;;;28.30;60.80;;;;;;4194374;28;20483;-62
2022/07/21 05:23:19;;;;;;;0.00;0.00;;;28.30;60.80;;;;;;4193465;28;20068;-62
2022/07/21 05:25:41;;;;;;;0.10;0.10;;;28.40;61.10;;;;;;4195032;28;20071;-62
2022/07/21 05:28:03;;;;;;;2.30;1.75;;;28.30;60.90;;;;;;4194400;28;20104;-62
2022/07/21 05:30:26;;;;;;;0.10;0.10;;;28.30;60.90;;;;;;4188497;28;20393;-62
2022/07/21 05:32:49;;;;;;;0.30;0.30;;;28.30;60.90;;;;;;4194696;28;20422;-61
2022/07/21 05:35:12;;;;;;;0.05;0.05;;;28.30;60.90;;;;;;4194057;28;20051;-63
2022/07/21 05:37:34;;;;;;;0.17;0.17;;;28.30;61.00;;;;;;4178006;28;20064;-62
2022/07/21 05:39:56;;;;;;;0.20;0.20;;;28.30;60.90;;;;;;4176929;28;20052;-62
2022/07/21 05:42:18;;;;;;;0.00;0.00;;;28.30;60.90;;;;;;4176566;28;20111;-61
2022/07/21 05:44:40;;;;;;;0.00;0.00;;;28.30;61.10;;;;;;4182020;28;20064;-62
2022/07/21 05:47:02;;;;;;;1.38;1.27;;;28.30;60.90;;;;;;4194319;28;20075;-61
2022/07/21 05:49:26;;;;;;;2.08;0.63;;;28.30;60.90;;;;;;4193269;28;20139;-62
2022/07/21 05:51:48;;;;;;;0.00;0.00;;;28.30;60.90;;;;;;4193972;28;20054;-61
2022/07/21 05:54:10;;;;;;;0.60;0.60;;;28.30;60.90;;;;;;4193708;28;20097;-62
2022/07/21 05:56:32;;;;;;;0.10;0.10;;;28.30;60.90;;;;;;4194056;28;20106;-62
2022/07/21 05:58:54;;;;;;;0.28;0.28;;;28.30;61.00;;;;;;4193673;28;20063;-62
2022/07/21 06:01:17;;;;;;;0.17;0.17;;;28.30;61.00;;;;;;4193701;28;20392;-62
2022/07/21 06:03:40;;;;;;;0.45;0.45;;;28.30;61.10;;;;;;4193707;28;20048;-62
2022/07/21 06:06:04;;;;;;;0.00;0.00;;;28.30;61.10;;;;;;4193665;28;20071;-61
2022/07/21 06:08:26;;;;;;;0.00;0.00;;;28.30;61.10;;;;;;4193722;28;20074;-61
2022/07/21 06:10:48;;;;;;;0.55;0.50;;;28.30;61.10;;;;;;4193045;28;20051;-61
2022/07/21 06:13:10;;;;;;;0.10;0.10;;;28.30;61.20;;;;;;4192972;28;20068;-62
2022/07/21 06:15:32;;;;;;;0.55;0.55;;;28.30;61.10;;;;;;4192593;28;20132;-61
2022/07/21 06:17:54;;;;;;;0.00;0.00;;;28.30;61.10;;;;;;4193981;28;20144;-61
2022/07/21 06:20:16;;;;;;;0.00;0.00;;;28.30;62.10;;;;;;4193157;28;20052;-61
2022/07/21 06:22:40;;;;;;;0.00;0.00;;;28.30;61.40;;;;;;4191177;28;20059;-61
2022/07/21 06:25:02;;;;;;;0.20;0.20;;;28.30;61.70;;;;;;4178801;28;20116;-61
2022/07/21 06:27:24;;;;;;;0.03;0.03;;;28.30;62.60;;;;;;4201319;28;20055;-61
2022/07/21 06:29:46;;;;;;;0.40;0.40;;;28.30;61.80;;;;;;4192631;28;20053;-62
2022/07/21 06:32:08;;;;;;;0.00;0.00;;;28.30;61.80;;;;;;4192143;28;20052;-61
2022/07/21 06:34:30;;;;;;;0.73;0.73;;;28.30;61.80;;;;;;4175251;28;20861;-62
2022/07/21 06:36:52;;;;;;;0.45;0.45;;;28.30;61.90;;;;;;4189510;28;20044;-61
2022/07/21 06:39:15;;;;;;;0.20;0.20;;;28.30;62.10;;;;;;4192908;28;20502;-61
2022/07/21 06:41:38;;;;;;;0.20;0.20;;;28.30;62.20;;;;;;4192602;28;20128;-61
2022/07/21 06:44:07;;;;;;;0.30;0.30;;;28.30;62.20;;;;;;4191413;28;20068;-61
2022/07/21 06:46:29;;;;;;;0.00;0.00;;;28.30;62.20;;;;;;4193483;28;20501;-61
2022/07/21 06:48:51;;;;;;;0.00;0.00;;;28.30;62.10;;;;;;4193417;28;20383;-62
2022/07/21 06:51:13;;;;;;;0.30;0.30;;;28.30;62.10;;;;;;4191837;28;20849;-61
2022/07/21 06:53:35;;;;;;;0.55;0.55;;;28.30;62.10;;;;;;4192822;28;20079;-61
2022/07/21 06:55:58;;;;;;;0.52;0.52;;;28.30;62.00;;;;;;4193106;28;20468;-60
2022/07/21 06:58:25;;;;;;;0.30;0.30;;;28.30;62.10;;;;;;4192906;28;20067;-61
2022/07/21 07:00:48;;;;;;;0.10;0.10;;;28.30;62.10;;;;;;4192989;28;20060;-61
2022/07/21 07:03:10;;;;;;;0.82;0.82;;;28.30;62.10;;;;;;4192374;28;20210;-62
2022/07/21 07:05:33;;;;;;;0.30;0.30;;;28.20;62.10;;;;;;4192756;28;20131;-61
2022/07/21 07:07:55;;;;;;;0.38;0.38;;;28.20;62.10;;;;;;4174733;28;20163;-61
2022/07/21 07:10:17;;;;;;;0.20;0.20;;;28.20;62.10;;;;;;4187467;28;20132;-61
2022/07/21 07:12:41;;;;;;;0.45;0.20;;;28.20;62.20;;;;;;4190815;28;20068;-62
2022/07/21 07:15:24;;;;;;;0.38;0.38;;;28.20;62.20;;;;;;4192414;28;20048;-61
2022/07/21 07:17:46;;;;;;;0.38;0.38;;;28.20;62.10;;;;;;4192435;28;20106;-61
2022/07/21 07:20:09;;;;;;;0.98;0.82;;;28.20;62.00;;;;;;4192490;28;20106;-61
2022/07/21 07:22:31;;;;;;;0.20;0.20;;;28.20;62.00;;;;;;4192051;28;20465;-60
2022/07/21 07:24:53;;;;;;;1.38;1.27;;;28.20;62.00;;;;;;4192772;28;20058;-60
2022/07/21 07:27:16;;;;;;;0.80;0.75;;;28.20;61.90;;;;;;4192344;28;20407;-61
2022/07/21 07:29:39;;;;;;;3.63;2.22;;;28.20;61.90;;;;;;4192458;28;20125;-61
2022/07/21 07:32:01;;;;;;;0.17;0.17;;;28.20;61.90;;;;;;4190593;28;20521;-61
2022/07/21 07:34:23;;;;;;;0.75;0.75;;;28.20;61.90;;;;;;4192596;28;20123;-61
2022/07/21 07:36:46;;;;;;;1.17;0.95;;;28.10;61.80;;;;;;4192099;28;20044;-62
2022/07/21 07:39:08;;;;;;;0.40;0.40;;;28.10;61.70;;;;;;4191664;28;20506;-61
2022/07/21 07:41:31;;;;;;;0.00;0.00;;;28.10;61.70;;;;;;4192243;28;20852;-61
2022/07/21 07:43:54;;;;;;;0.13;0.13;;;28.10;61.70;;;;;;4192369;28;20068;-60
2022/07/21 07:46:17;;;;;;;1.35;1.25;;;28.10;61.60;;;;;;4192281;28;20106;-61
2022/07/21 07:48:41;;;;;;;0.00;0.00;;;28.10;61.70;;;;;;4191017;28;20063;-61
2022/07/21 07:51:04;;;;;;;0.32;0.32;;;28.10;61.80;;;;;;4175237;28;20128;-61
2022/07/21 07:53:26;;;;;;;0.10;0.10;;;28.10;61.80;;;;;;4175934;28;20053;-60
2022/07/21 07:55:48;;;;;;;0.10;0.10;;;28.10;61.70;;;;;;4175495;28;20060;-60
2022/07/21 07:58:09;;;;;;;0.52;0.52;;;28.10;61.70;;;;;;4174563;28;20083;-60
2022/07/21 08:00:31;;;;;;;0.30;0.30;;;28.00;61.60;;;;;;4190552;28;20060;-61
2022/07/21 08:03:15;;;;;;;0.00;0.00;;;28.00;61.60;;;;;;4192289;28;20055;-60
2022/07/21 08:05:37;;;;;;;0.30;0.30;;;28.00;61.60;;;;;;4191693;28;20055;-61
2022/07/21 08:08:00;;;;;;;1.67;1.58;;;28.00;61.50;;;;;;4175789;28;20492;-60
2022/07/21 08:10:21;;;;;;;0.15;0.15;;;28.00;61.50;;;;;;4189008;28;20526;-61
2022/07/21 08:13:01;;;;;;;3.13;0.77;;;28.00;61.50;;;;;;4191978;28;20052;-60
2022/07/21 08:15:28;;;;;;;0.13;0.13;;;28.00;61.60;;;;;;4192008;28;20045;-60
2022/07/21 08:17:50;;;;;;;0.52;0.52;;;28.00;61.60;;;;;;4192542;28;20044;-60
2022/07/21 08:20:14;;;;;;;0.32;0.32;;;28.00;61.70;;;;;;4191762;28;20055;-60
2022/07/21 08:22:36;;;;;;;0.25;0.25;;;28.00;61.50;;;;;;4192236;28;20415;-60
2022/07/21 08:24:58;;;;;;;0.25;0.25;;;28.00;61.50;;;;;;4190728;28;20048;-61
2022/07/21 08:27:20;;;;;;;1.05;1.00;;;28.00;61.40;;;;;;4191773;28;20123;-60
2022/07/21 08:29:42;;;;;;;0.32;0.32;;;28.00;61.40;;;;;;4191742;28;20157;-61
2022/07/21 08:32:05;;;;;;;0.03;0.03;;;28.00;61.40;;;;;;4192076;28;20048;-60
2022/07/21 08:34:28;;;;;;;0.15;0.15;;;28.00;61.30;;;;;;4191914;28;20102;-60
2022/07/21 08:36:52;;;;;;;0.65;0.65;;;28.00;61.30;;;;;;4191343;28;20127;-60
2022/07/21 08:39:13;;;;;;;0.93;0.93;;;28.00;61.30;;;;;;4191907;28;20565;-60
2022/07/21 08:41:37;;;;;;;0.57;0.57;;;28.00;61.30;;;;;;4192100;28;20102;-59
2022/07/21 08:43:59;;;;;;;0.47;0.47;;;28.00;61.30;;;;;;4191687;28;20101;-60
2022/07/21 08:46:23;;;;;;;0.20;0.20;;;28.00;61.30;;;;;;4193676;28;20135;-59
2022/07/21 08:48:45;;;;;;;0.77;0.77;;;28.00;62.20;;;;;;4195285;28;20056;-60
2022/07/21 08:51:08;;;;;;;0.30;0.30;;;28.00;61.30;;;;;;4194999;28;20811;-60
2022/07/21 08:53:32;;;;;;;1.65;0.70;;;28.00;61.30;;;;;;4195244;28;20056;-60
2022/07/21 08:55:54;;;;;;;0.10;0.10;;;28.00;61.30;;;;;;4193655;28;20044;-59
2022/07/21 08:58:17;;;;;;;0.45;0.45;;;28.00;61.30;;;;;;4194859;28;20407;-60
2022/07/21 09:00:41;;;;;;;1.92;1.83;;;28.00;61.20;;;;;;4192681;28;20056;-59
2022/07/21 09:03:14;;;;;;;0.20;0.20;;;28.00;61.00;;;;;;4192837;28;20503;-59
2022/07/21 09:05:36;;;;;;;0.43;0.43;;;28.00;60.90;;;;;;4193254;28;20052;-59
2022/07/21 09:07:58;;;;;;;0.73;0.73;;;28.00;60.80;;;;;;4191115;28;20483;-59
2022/07/21 09:10:24;;;;;;;0.00;0.00;;;28.10;60.80;;;;;;4193203;28;20561;-60
2022/07/21 09:12:51;;;;;;;1.40;1.30;;;28.10;60.60;;;;;;4184227;28;20163;-59
2022/07/21 09:15:14;;;;;;;0.22;0.22;;;28.10;60.60;;;;;;4194087;28;20398;-59
2022/07/21 09:17:36;;;;;;;0.43;0.43;;;28.10;60.40;;;;;;4192294;28;20151;-59
2022/07/21 09:20:23;;;;;;;2.50;0.82;;;28.20;60.40;;;;;;4188238;28;20047;-58
2022/07/21 09:23:02;;;;;;;2.15;1.20;;;28.20;60.30;;;;;;4177798;28;20121;-59
2022/07/21 09:25:43;;;;;;;0.00;0.00;;;28.30;60.00;;;;;;4181297;28;20097;-59
2022/07/21 09:28:18;;;;;;;0.30;0.30;;;28.30;59.80;;;;;;4178084;28;20166;-59
2022/07/21 09:30:52;;;;;;;1.23;1.13;;;28.40;59.80;;;;;;4178213;28;20087;-59
2022/07/21 09:33:21;;;;;;;0.63;0.63;;;28.40;59.80;;;;;;4178253;28;20542;-60
2022/07/21 09:35:56;;;;;;;0.20;0.20;;;28.50;59.80;;;;;;4188334;28;20044;-59
2022/07/21 09:38:18;;;;;;;0.20;0.20;;;28.50;59.70;;;;;;4183354;28;20052;-59
2022/07/21 09:40:47;;;;;;;0.95;0.95;;;28.50;59.40;;;;;;4194569;28;20056;-59
2022/07/21 09:43:09;;;;;;;0.20;0.20;;;28.60;59.30;;;;;;4194352;28;20506;-59
2022/07/21 09:45:38;;;;;;;0.30;0.30;;;28.60;59.10;;;;;;4193938;28;20483;-60
2022/07/21 09:47:59;;;;;;;1.23;0.68;;;28.60;58.80;;;;;;4194507;28;20052;-59
2022/07/21 09:50:38;;;;;;;0.38;0.38;;;28.50;58.50;;;;;;4194200;28;20063;-59
2022/07/21 09:53:02;;;;;;;0.00;0.00;;;28.50;58.20;;;;;;4193697;28;20410;-59
2022/07/21 09:55:24;;;;;;;1.55;1.00;;;28.50;58.10;;;;;;4194596;28;20545;-59
2022/07/21 09:57:48;;;;;;;0.85;0.85;;;28.50;58.10;;;;;;4193565;28;20060;-60
2022/07/21 10:00:12;;;;;;;5.57;0.65;;;28.60;58.10;;;;;;4193791;28;20055;-60
2022/07/21 10:02:40;;;;;;;1.25;1.17;;;28.50;57.90;;;;;;4193817;28;20055;-60
2022/07/21 10:05:05;;;;;;;1.90;1.40;;;28.60;57.90;;;;;;4193760;28;20094;-59
2022/07/21 10:07:29;;;;;;;0.95;0.95;;;28.50;57.90;;;;;;4192324;28;20051;-60
2022/07/21 10:09:51;;;;;;;1.20;1.20;;;28.50;57.90;;;;;;4194373;28;20517;-59
2022/07/21 10:12:13;;;;;;;1.00;0.65;;;28.50;58.00;;;;;;4193502;28;20193;-60
2022/07/21 10:14:38;;;;;;;5.28;1.35;;;28.50;58.10;;;;;;4193745;28;20056;-59
2022/07/21 10:17:00;;;;;;;0.30;0.30;;;28.50;58.10;;;;;;4193806;28;20071;-59
2022/07/21 10:19:28;;;;;;;1.08;1.08;;;28.50;58.30;;;;;;4193954;28;20046;-59
2022/07/21 10:21:56;;;;;;;0.35;0.22;;;28.50;58.30;;;;;;4193745;28;20512;-59
2022/07/21 10:24:19;;;;;;;3.20;1.40;;;28.50;58.20;;;;;;4192103;28;20067;-60
2022/07/21 10:27:01;;;;;;;0.40;0.40;;;28.40;58.20;;;;;;4193871;28;20103;-59
2022/07/21 10:29:53;;;;;;;0.00;0.00;;;28.40;58.20;;;;;;4193581;28;20157;-59
2022/07/21 10:32:23;;;;;;;0.43;0.43;;;28.40;58.30;;;;;;4193359;28;20045;-60
2022/07/21 10:34:45;;;;;;;0.00;0.00;;;28.40;59.10;;;;;;4193264;28;20056;-59
2022/07/21 10:37:07;;;;;;;0.93;0.93;;;28.40;58.50;;;;;;4191656;28;20087;-61
2022/07/21 10:39:32;;;;;;;0.10;0.10;;;28.30;58.50;;;;;;4193693;28;20553;-62
2022/07/21 10:41:58;;;;;;;1.27;1.17;;;28.30;58.80;;;;;;4191996;28;20155;-61
2022/07/21 10:44:42;;;;;;;0.65;0.65;;;28.30;59.00;;;;;;4192568;28;20125;-60
2022/07/21 10:47:07;;;;;;;0.60;0.60;;;28.30;58.90;;;;;;4193212;28;20118;-60
2022/07/21 10:49:43;;;;;;;0.20;0.20;;;28.30;58.80;;;;;;4192686;28;20068;-61
2022/07/21 10:52:05;;;;;;;0.50;0.50;;;28.20;58.80;;;;;;4193283;28;20601;-61
2022/07/21 10:54:27;;;;;;;0.57;0.57;;;28.20;58.80;;;;;;4193342;28;20075;-61
2022/07/21 10:56:49;;;;;;;0.47;0.47;;;28.20;59.00;;;;;;4192780;28;20094;-61
2022/07/21 10:59:11;;;;;;;0.00;0.00;;;28.20;59.00;;;;;;4192703;28;20494;-61
2022/07/21 11:01:35;;;;;;;0.10;0.10;;;28.20;59.10;;;;;;4193314;28;20499;-62
2022/07/21 11:04:12;;;;;;;0.32;0.32;;;28.20;59.10;;;;;;4193149;28;20051;-61
2022/07/21 11:06:36;;;;;;;0.25;0.25;;;28.10;59.00;;;;;;4192763;28;20549;-61
2022/07/21 11:09:13;;;;;;;2.08;1.40;;;28.10;59.00;;;;;;4192183;28;20048;-61
2022/07/21 11:11:37;;;;;;;0.10;0.10;;;28.20;59.20;;;;;;4192396;28;20838;-60
2022/07/21 11:14:08;;;;;;;1.02;1.02;;;28.20;60.00;;;;;;4192308;28;20128;-61
2022/07/21 11:17:01;;;;;;;0.47;0.43;;;28.10;59.30;;;;;;4192132;28;20055;-61
2022/07/21 11:19:38;;;;;;;1.00;1.00;;;28.20;59.50;;;;;;4192543;28;20494;-61
2022/07/21 11:22:03;;;;;;;1.98;0.47;;;28.20;59.70;;;;;;4192949;28;20429;-61
2022/07/21 11:24:26;;;;;;;1.15;1.13;;;28.20;59.80;;;;;;4192835;28;20055;-62
2022/07/21 11:26:55;;;;;;;0.43;0.43;;;28.20;59.80;;;;;;4192713;28;20048;-61
2022/07/21 11:29:17;;;;;;;0.68;0.68;;;28.20;59.90;;;;;;4192389;28;20162;-61
2022/07/21 11:31:47;;;;;;;0.90;0.90;;;28.20;60.70;;;;;;4191588;28;20087;-61
2022/07/21 11:34:09;;;;;;;0.90;0.80;;;28.20;59.80;;;;;;4191873;28;20094;-61
2022/07/21 11:36:33;;;;;;;0.40;0.40;;;28.20;59.80;;;;;;4192656;28;20056;-62
2022/07/21 11:39:01;;;;;;;0.50;0.50;;;28.20;59.90;;;;;;4192930;28;20063;-61
2022/07/21 11:41:23;;;;;;;0.47;0.47;;;28.20;59.80;;;;;;4192489;28;20067;-61
2022/07/21 11:43:47;;;;;;;0.20;0.20;;;28.20;59.80;;;;;;4192813;28;20460;-61
2022/07/21 11:46:09;;;;;;;1.95;1.85;;;28.20;59.80;;;;;;4192599;28;20669;-61
2022/07/21 11:48:32;;;;;;;0.25;0.25;;;28.20;59.90;;;;;;4192494;28;20045;-61
2022/07/21 11:51:00;;;;;;;0.17;0.17;;;28.20;59.90;;;;;;4192071;28;20044;-62
2022/07/21 11:53:23;;;;;;;0.40;0.40;;;28.20;59.80;;;;;;4192864;28;20053;-61
2022/07/21 11:55:45;;;;;;;1.20;1.20;;;28.20;59.90;;;;;;4192328;28;20090;-61
2022/07/21 11:58:14;;;;;;;0.60;0.60;;;28.20;59.90;;;;;;4191251;28;20134;-61
2022/07/21 12:00:36;;;;;;;1.65;0.98;;;28.20;59.90;;;;;;4192385;28;20048;-61
2022/07/21 12:03:06;;;;;;;0.30;0.30;;;28.20;59.90;;;;;;4192354;28;20055;-61
2022/07/21 12:05:29;;;;;;;3.03;1.85;;;28.20;59.80;;;;;;4192375;28;20465;-61
2022/07/21 12:07:53;;;;;;;0.10;0.10;;;28.20;59.80;;;;;;4192259;28;20115;-61
2022/07/21 12:10:25;;;;;;;0.10;0.10;;;28.20;59.80;;;;;;4192331;28;20057;-61
2022/07/21 12:12:49;;;;;;;0.25;0.25;;;28.20;59.80;;;;;;4192161;28;20187;-61
2022/07/21 12:15:15;;;;;;;0.90;0.55;;;28.20;59.80;;;;;;4191887;28;20388;-61
2022/07/21 12:17:39;;;;;;;2.10;1.90;;;28.20;59.80;;;;;;4192186;28;20056;-61
2022/07/21 12:20:01;;;;;;;1.90;1.20;;;28.20;59.80;;;;;;4191258;28;20106;-61
2022/07/21 12:22:34;;;;;;;0.20;0.20;;;28.20;59.80;;;;;;4192326;28;20052;-61
2022/07/21 12:24:58;;;;;;;0.65;0.65;;;28.20;59.80;;;;;;4191870;28;20059;-61
2022/07/21 12:27:22;;;;;;;1.10;0.93;;;28.20;59.70;;;;;;4191939;28;20098;-61
2022/07/21 12:29:45;;;;;;;0.10;0.10;;;28.20;59.70;;;;;;4192168;28;20078;-61
2022/07/21 12:32:07;;;;;;;2.17;0.80;;;28.30;59.80;;;;;;4191678;28;20044;-61
2022/07/21 12:34:29;;;;;;;0.75;0.75;;;28.30;59.70;;;;;;4192318;28;20052;-61